sensor_id;sensor_type;location;lat;lon;timestamp;pressure;altitude;pressure_sealevel;temperature;humidity
9281;BME280;4679;47.966;7.958;2023-03-22T06:42:31;96923.84;;;6.07;74.04
9281;BME280;4679;47.966;7.958;2023-03-22T06:44:33;96920.88;;;6.15;74.71
9281;BME280;4679;47.966;7.958;2023-03-22T06:46:35;96915.69;;;6.27;74.48
9281;BME280;4679;47.966;7.958;2023-03-22T06:48:37;96917.22;;;6.34;74.56
9281;BME280;4679;47.966;7.958;2023-03-22T06:50:39;96917.28;;;6.46;73.26
9281;BME280;4679;47.966;7.958;2023-03-22T06:52:41;96915.28;;;6.60;73.88
9281;BME280;4679;47.966;7.958;2023-03-22T06:54:42;96915.91;;;6.74;73.67
9281;BME280;4679;47.966;7.958;2023-03-22T06:56:44;96910.78;;;6.90;72.96
9281;BME280;4679;47.966;7.958;2023-03-22T06:58:47;96911.97;;;7.06;72.97
9281;BME280;4679;47.966;7.958;2023-03-22T07:00:51;96911.66;;;7.14;73.11
9281;BME280;4679;47.966;7.958;2023-03-22T07:02:52;96908.31;;;7.19;73.13
9281;BME280;4679;47.966;7.958;2023-03-22T07:04:54;96902.75;;;7.27;73.56
9281;BME280;4679;47.966;7.958;2023-03-22T07:06:56;96904.22;;;7.34;73.60
9281;BME280;4679;47.966;7.958;2023-03-22T07:08:57;96904.72;;;7.43;73.53
9281;BME280;4679;47.966;7.958;2023-03-22T07:10:59;96908.03;;;7.50;73.12
9281;BME280;4679;47.966;7.958;2023-03-22T07:13:01;96907.34;;;7.66;73.06
9281;BME280;4679;47.966;7.958;2023-03-22T07:15:05;96905.53;;;7.79;72.97
9281;BME280;4679;47.966;7.958;2023-03-22T07:17:07;96910.22;;;7.88;72.30
9281;BME280;4679;47.966;7.958;2023-03-22T07:19:09;96910.78;;;8.02;72.60
9281;BME280;4679;47.966;7.958;2023-03-22T07:21:11;96909.59;;;8.21;72.41
9281;BME280;4679;47.966;7.958;2023-03-22T07:23:13;96908.09;;;8.37;72.16
9281;BME280;4679;47.966;7.958;2023-03-22T07:25:14;96895.16;;;8.52;71.85
9281;BME280;4679;47.966;7.958;2023-03-22T07:27:16;96904.41;;;8.66;71.77
9281;BME280;4679;47.966;7.958;2023-03-22T07:29:18;96905.97;;;8.79;71.78
9281;BME280;4679;47.966;7.958;2023-03-22T07:31:21;96903.47;;;9.01;71.20
9281;BME280;4679;47.966;7.958;2023-03-22T07:33:23;96900.56;;;9.19;70.75
9281;BME280;4679;47.966;7.958;2023-03-22T07:35:25;96901.84;;;9.33;71.02
9281;BME280;4679;47.966;7.958;2023-03-22T07:37:26;96896.31;;;9.51;71.04
9281;BME280;4679;47.966;7.958;2023-03-22T07:39:28;96901.59;;;9.68;70.76
9281;BME280;4679;47.966;7.958;2023-03-22T07:41:30;96903.31;;;9.96;69.78
9281;BME280;4679;47.966;7.958;2023-03-22T07:43:31;96909.25;;;10.20;70.07
9281;BME280;4679;47.966;7.958;2023-03-22T07:45:33;96908.94;;;10.38;70.46
9281;BME280;4679;47.966;7.958;2023-03-22T07:47:36;96908.56;;;10.51;70.20
9281;BME280;4679;47.966;7.958;2023-03-22T07:49:38;96902.88;;;10.65;69.13
9281;BME280;4679;47.966;7.958;2023-03-22T07:51:39;96898.78;;;10.79;68.57
9281;BME280;4679;47.966;7.958;2023-03-22T07:53:41;96902.38;;;10.95;69.20
9281;BME280;4679;47.966;7.958;2023-03-22T07:55:43;96902.28;;;11.11;68.82
9281;BME280;4679;47.966;7.958;2023-03-22T07:57:44;96896.28;;;11.26;69.10
9281;BME280;4679;47.966;7.958;2023-03-22T07:59:46;96891.06;;;11.36;68.61
9281;BME280;4679;47.966;7.958;2023-03-22T08:01:48;96896.78;;;11.55;68.47
9281;BME280;4679;47.966;7.958;2023-03-22T08:03:51;96895.91;;;11.76;67.93
9281;BME280;4679;47.966;7.958;2023-03-22T08:05:52;96897.31;;;11.89;67.33
9281;BME280;4679;47.966;7.958;2023-03-22T08:07:54;96887.03;;;12.03;67.13
9281;BME280;4679;47.966;7.958;2023-03-22T08:09:56;96895.88;;;12.18;67.26
9281;BME280;4679;47.966;7.958;2023-03-22T08:11:57;96887.66;;;12.30;67.38
9281;BME280;4679;47.966;7.958;2023-03-22T08:13:59;96881.88;;;12.53;66.74
9281;BME280;4679;47.966;7.958;2023-03-22T08:16:01;96885.13;;;12.71;66.79
9281;BME280;4679;47.966;7.958;2023-03-22T08:18:02;96885.97;;;12.81;66.25
9281;BME280;4679;47.966;7.958;2023-03-22T08:20:07;96890.28;;;13.08;65.90
9281;BME280;4679;47.966;7.958;2023-03-22T08:22:09;96894.31;;;13.20;65.53
9281;BME280;4679;47.966;7.958;2023-03-22T08:24:11;96885.81;;;13.28;65.52
9281;BME280;4679;47.966;7.958;2023-03-22T08:26:14;96878.88;;;13.37;65.47
9281;BME280;4679;47.966;7.958;2023-03-22T08:28:15;96892.19;;;13.48;64.89
9281;BME280;4679;47.966;7.958;2023-03-22T08:30:17;96892.69;;;13.60;64.71
9281;BME280;4679;47.966;7.958;2023-03-22T08:32:21;96882.03;;;13.75;63.94
9281;BME280;4679;47.966;7.958;2023-03-22T08:34:22;96886.25;;;13.91;63.86
9281;BME280;4679;47.966;7.958;2023-03-22T08:36:26;96881.69;;;14.07;63.49
9281;BME280;4679;47.966;7.958;2023-03-22T08:38:28;96889.38;;;14.24;63.35
9281;BME280;4679;47.966;7.958;2023-03-22T08:40:30;96885.63;;;14.35;62.92
9281;BME280;4679;47.966;7.958;2023-03-22T08:42:32;96882.91;;;14.50;62.79
9281;BME280;4679;47.966;7.958;2023-03-22T08:44:33;96878.06;;;14.57;62.36
9281;BME280;4679;47.966;7.958;2023-03-22T08:46:35;96878.06;;;14.57;62.25
9281;BME280;4679;47.966;7.958;2023-03-22T08:48:36;96881.72;;;14.71;61.71
9281;BME280;4679;47.966;7.958;2023-03-22T08:50:40;96889.09;;;14.90;61.16
9281;BME280;4679;47.966;7.958;2023-03-22T08:52:43;96880.75;;;15.01;61.14
9281;BME280;4679;47.966;7.958;2023-03-22T08:54:45;96884.72;;;15.09;60.84
9281;BME280;4679;47.966;7.958;2023-03-22T08:56:47;96882.72;;;15.25;60.21
9281;BME280;4679;47.966;7.958;2023-03-22T08:58:49;96877.25;;;15.40;59.99
9281;BME280;4679;47.966;7.958;2023-03-22T09:00:51;96874.59;;;15.40;59.64
9281;BME280;4679;47.966;7.958;2023-03-22T09:02:52;96876.75;;;15.38;60.07
9281;BME280;4679;47.966;7.958;2023-03-22T09:04:54;96877.47;;;15.43;59.34
9281;BME280;4679;47.966;7.958;2023-03-22T09:06:56;96890.00;;;15.53;59.50
9281;BME280;4679;47.966;7.958;2023-03-22T09:09:15;96887.91;;;15.79;58.70
9281;BME280;4679;47.966;7.958;2023-03-22T09:11:17;96882.13;;;15.96;58.60
9281;BME280;4679;47.966;7.958;2023-03-22T09:13:20;96884.09;;;15.85;58.33
9281;BME280;4679;47.966;7.958;2023-03-22T09:15:22;96884.44;;;15.78;58.11
9281;BME280;4679;47.966;7.958;2023-03-22T09:17:23;96876.97;;;15.75;58.18
9281;BME280;4679;47.966;7.958;2023-03-22T09:19:25;96878.28;;;15.78;58.30
9281;BME280;4679;47.966;7.958;2023-03-22T09:21:27;96884.38;;;15.83;58.08
9281;BME280;4679;47.966;7.958;2023-03-22T09:23:30;96883.44;;;15.98;57.67
9281;BME280;4679;47.966;7.958;2023-03-22T09:25:34;96883.50;;;16.17;57.52
9281;BME280;4679;47.966;7.958;2023-03-22T09:27:36;96886.22;;;16.36;57.23
9281;BME280;4679;47.966;7.958;2023-03-22T09:29:38;96880.09;;;16.54;56.19
9281;BME280;4679;47.966;7.958;2023-03-22T09:31:40;96877.38;;;16.59;56.19
9281;BME280;4679;47.966;7.958;2023-03-22T09:33:42;96869.34;;;16.59;56.13
9281;BME280;4679;47.966;7.958;2023-03-22T09:35:44;96868.38;;;16.74;56.15
9281;BME280;4679;47.966;7.958;2023-03-22T09:37:46;96867.19;;;16.99;55.45
9281;BME280;4679;47.966;7.958;2023-03-22T09:39:48;96870.16;;;17.16;54.96
9281;BME280;4679;47.966;7.958;2023-03-22T09:41:53;96870.72;;;17.32;54.86
9281;BME280;4679;47.966;7.958;2023-03-22T09:43:58;96874.03;;;17.42;53.90
9281;BME280;4679;47.966;7.958;2023-03-22T09:46:05;96855.31;;;17.56;53.67
9281;BME280;4679;47.966;7.958;2023-03-22T09:48:13;96849.22;;;17.69;53.13
9281;BME280;4679;47.966;7.958;2023-03-22T09:50:20;96844.03;;;17.73;52.67
9281;BME280;4679;47.966;7.958;2023-03-22T09:52:22;96847.72;;;17.77;52.07
9281;BME280;4679;47.966;7.958;2023-03-22T09:54:29;96847.34;;;17.83;51.82
9281;BME280;4679;47.966;7.958;2023-03-22T09:56:32;96842.84;;;17.79;51.78
9281;BME280;4679;47.966;7.958;2023-03-22T09:58:42;96837.69;;;17.69;51.10
9281;BME280;4679;47.966;7.958;2023-03-22T10:00:53;96828.94;;;17.77;50.97
9281;BME280;4679;47.966;7.958;2023-03-22T10:03:00;96832.72;;;17.89;50.42
9281;BME280;4679;47.966;7.958;2023-03-22T10:05:15;96840.69;;;17.95;49.87
9281;BME280;4679;47.966;7.958;2023-03-22T10:07:24;96843.09;;;18.10;49.57
9281;BME280;4679;47.966;7.958;2023-03-22T10:09:33;96834.13;;;18.28;48.99
9281;BME280;4679;47.966;7.958;2023-03-22T10:11:41;96833.13;;;18.38;48.84
9281;BME280;4679;47.966;7.958;2023-03-22T10:13:53;96832.53;;;18.41;48.42
9281;BME280;4679;47.966;7.958;2023-03-22T10:16:00;96826.94;;;18.37;48.47
9281;BME280;4679;47.966;7.958;2023-03-22T10:18:05;96839.16;;;18.57;47.91
9281;BME280;4679;47.966;7.958;2023-03-22T10:20:17;96830.84;;;18.58;47.65
9281;BME280;4679;47.966;7.958;2023-03-22T10:22:22;96822.94;;;18.76;47.17
9281;BME280;4679;47.966;7.958;2023-03-22T10:24:26;96821.00;;;18.90;47.03
9281;BME280;4679;47.966;7.958;2023-03-22T10:26:33;96822.94;;;18.98;46.53
9281;BME280;4679;47.966;7.958;2023-03-22T10:28:38;96826.09;;;18.91;46.75
9281;BME280;4679;47.966;7.958;2023-03-22T10:30:43;96822.50;;;18.82;46.54
9281;BME280;4679;47.966;7.958;2023-03-22T10:32:50;96819.72;;;18.87;46.41
9281;BME280;4679;47.966;7.958;2023-03-22T10:34:56;96817.06;;;18.74;46.22
9281;BME280;4679;47.966;7.958;2023-03-22T10:37:00;96816.63;;;18.80;46.17
9281;BME280;4679;47.966;7.958;2023-03-22T10:39:09;96810.56;;;18.88;45.82
9281;BME280;4679;47.966;7.958;2023-03-22T10:41:14;96808.78;;;19.06;45.41
9281;BME280;4679;47.966;7.958;2023-03-22T10:43:20;96812.75;;;19.31;45.12
9281;BME280;4679;47.966;7.958;2023-03-22T10:45:23;96819.19;;;19.21;45.25
9281;BME280;4679;47.966;7.958;2023-03-22T10:47:32;96802.44;;;19.24;44.99
9281;BME280;4679;47.966;7.958;2023-03-22T10:49:38;96820.41;;;19.15;45.20
9281;BME280;4679;47.966;7.958;2023-03-22T10:51:45;96814.84;;;18.89;45.20
9281;BME280;4679;47.966;7.958;2023-03-22T10:53:50;96823.41;;;18.91;45.10
9281;BME280;4679;47.966;7.958;2023-03-22T10:55:54;96822.28;;;19.15;44.65
9281;BME280;4679;47.966;7.958;2023-03-22T10:58:04;96822.91;;;19.34;44.36
9281;BME280;4679;47.966;7.958;2023-03-22T11:00:14;96823.13;;;19.46;44.25
9281;BME280;4679;47.966;7.958;2023-03-22T11:02:18;96813.78;;;19.66;44.07
9281;BME280;4679;47.966;7.958;2023-03-22T11:04:22;96806.84;;;19.74;43.67
9281;BME280;4679;47.966;7.958;2023-03-22T11:06:25;96824.88;;;19.64;43.58
9281;BME280;4679;47.966;7.958;2023-03-22T11:08:37;96803.03;;;19.66;43.55
9281;BME280;4679;47.966;7.958;2023-03-22T11:10:39;96803.88;;;19.30;43.86
9281;BME280;4679;47.966;7.958;2023-03-22T11:12:44;96818.16;;;19.09;44.35
9281;BME280;4679;47.966;7.958;2023-03-22T11:14:49;96810.50;;;19.24;43.87
9281;BME280;4679;47.966;7.958;2023-03-22T11:16:54;96812.75;;;19.31;43.79
9281;BME280;4679;47.966;7.958;2023-03-22T11:18:57;96815.19;;;19.41;43.60
9281;BME280;4679;47.966;7.958;2023-03-22T11:21:06;96816.34;;;19.49;43.50
9281;BME280;4679;47.966;7.958;2023-03-22T11:23:12;96814.44;;;19.72;43.04
9281;BME280;4679;47.966;7.958;2023-03-22T11:25:21;96803.50;;;19.68;43.10
9281;BME280;4679;47.966;7.958;2023-03-22T11:27:27;96816.41;;;19.57;42.96
9281;BME280;4679;47.966;7.958;2023-03-22T11:29:38;96814.09;;;19.42;43.10
9281;BME280;4679;47.966;7.958;2023-03-22T11:31:55;96812.06;;;19.48;43.00
9281;BME280;4679;47.966;7.958;2023-03-22T11:33:59;96812.13;;;19.56;42.77
9281;BME280;4679;47.966;7.958;2023-03-22T11:36:03;96822.47;;;19.63;42.55
9281;BME280;4679;47.966;7.958;2023-03-22T11:38:21;96811.34;;;19.56;42.42
9281;BME280;4679;47.966;7.958;2023-03-22T11:40:24;96809.28;;;19.53;42.44
9281;BME280;4679;47.966;7.958;2023-03-22T11:42:26;96800.25;;;19.57;42.45
9281;BME280;4679;47.966;7.958;2023-03-22T11:44:31;96805.75;;;19.75;42.29
9281;BME280;4679;47.966;7.958;2023-03-22T11:46:35;96802.56;;;19.73;42.15
9281;BME280;4679;47.966;7.958;2023-03-22T11:48:39;96804.31;;;19.77;41.88
9281;BME280;4679;47.966;7.958;2023-03-22T11:50:43;96800.91;;;19.94;41.91
9281;BME280;4679;47.966;7.958;2023-03-22T11:52:45;96796.34;;;20.03;41.49
9281;BME280;4679;47.966;7.958;2023-03-22T11:54:50;96789.38;;;20.02;41.24
9281;BME280;4679;47.966;7.958;2023-03-22T11:56:54;96789.06;;;20.03;41.26
9281;BME280;4679;47.966;7.958;2023-03-22T11:59:04;96776.44;;;20.21;41.08
9281;BME280;4679;47.966;7.958;2023-03-22T12:01:09;96779.19;;;20.39;40.75
9281;BME280;4679;47.966;7.958;2023-03-22T12:03:15;96785.38;;;20.39;40.67
9281;BME280;4679;47.966;7.958;2023-03-22T12:05:21;96775.69;;;20.29;40.71
9281;BME280;4679;47.966;7.958;2023-03-22T12:07:27;96778.47;;;20.07;41.01
9281;BME280;4679;47.966;7.958;2023-03-22T12:09:38;96775.69;;;19.90;41.02
9281;BME280;4679;47.966;7.958;2023-03-22T12:11:45;96782.38;;;19.92;41.38
9281;BME280;4679;47.966;7.958;2023-03-22T12:13:50;96775.25;;;19.96;40.97
9281;BME280;4679;47.966;7.958;2023-03-22T12:15:55;96774.16;;;19.97;40.93
9281;BME280;4679;47.966;7.958;2023-03-22T12:17:59;96774.78;;;20.03;41.01
9281;BME280;4679;47.966;7.958;2023-03-22T12:20:11;96772.41;;;19.93;40.88
9281;BME280;4679;47.966;7.958;2023-03-22T12:22:30;96782.19;;;19.89;40.78
9281;BME280;4679;47.966;7.958;2023-03-22T12:24:32;96777.53;;;20.12;40.61
9281;BME280;4679;47.966;7.958;2023-03-22T12:26:34;96777.84;;;20.19;40.27
9281;BME280;4679;47.966;7.958;2023-03-22T12:28:41;96769.75;;;20.19;40.25
9281;BME280;4679;47.966;7.958;2023-03-22T12:30:48;96769.63;;;20.32;40.27
9281;BME280;4679;47.966;7.958;2023-03-22T12:32:55;96772.38;;;20.50;39.83
9281;BME280;4679;47.966;7.958;2023-03-22T12:34:59;96760.66;;;20.63;40.04
9281;BME280;4679;47.966;7.958;2023-03-22T12:37:01;96759.09;;;20.70;39.34
9281;BME280;4679;47.966;7.958;2023-03-22T12:39:07;96759.25;;;20.83;39.56
9281;BME280;4679;47.966;7.958;2023-03-22T12:41:11;96758.44;;;20.99;38.92
9281;BME280;4679;47.966;7.958;2023-03-22T12:43:18;96748.75;;;20.98;39.07
9281;BME280;4679;47.966;7.958;2023-03-22T12:45:27;96756.53;;;20.83;39.11
9281;BME280;4679;47.966;7.958;2023-03-22T12:47:33;96752.44;;;20.59;39.51
9281;BME280;4679;47.966;7.958;2023-03-22T12:49:40;96754.31;;;20.42;39.47
9281;BME280;4679;47.966;7.958;2023-03-22T12:51:45;96755.44;;;20.58;39.09
9281;BME280;4679;47.966;7.958;2023-03-22T12:53:50;96753.06;;;20.56;39.17
9281;BME280;4679;47.966;7.958;2023-03-22T12:55:52;96761.44;;;20.63;39.10
9281;BME280;4679;47.966;7.958;2023-03-22T12:57:55;96743.38;;;20.73;38.59
9281;BME280;4679;47.966;7.958;2023-03-22T12:59:58;96748.94;;;20.85;38.30
9281;BME280;4679;47.966;7.958;2023-03-22T13:02:14;96751.44;;;20.98;38.83
9281;BME280;4679;47.966;7.958;2023-03-22T13:04:45;96764.91;;;21.16;38.51
9281;BME280;4679;47.966;7.958;2023-03-22T13:06:56;96754.94;;;21.08;38.36
9281;BME280;4679;47.966;7.958;2023-03-22T13:09:17;96746.38;;;21.23;38.25
9281;BME280;4679;47.966;7.958;2023-03-22T13:11:23;96745.25;;;21.32;38.15
9281;BME280;4679;47.966;7.958;2023-03-22T13:13:46;96745.09;;;21.12;38.38
9281;BME280;4679;47.966;7.958;2023-03-22T13:15:59;96738.13;;;20.93;38.22
9281;BME280;4679;47.966;7.958;2023-03-22T13:18:03;96737.19;;;20.72;38.67
9281;BME280;4679;47.966;7.958;2023-03-22T13:20:28;96743.69;;;20.71;38.83
9281;BME280;4679;47.966;7.958;2023-03-22T13:23:10;96737.81;;;20.52;38.72
9281;BME280;4679;47.966;7.958;2023-03-22T13:25:29;96730.22;;;20.71;38.33
9281;BME280;4679;47.966;7.958;2023-03-22T13:27:34;96720.38;;;20.75;38.07
9281;BME280;4679;47.966;7.958;2023-03-22T13:29:37;96721.63;;;21.03;37.89
9281;BME280;4679;47.966;7.958;2023-03-22T13:31:42;96713.16;;;21.31;37.65
9281;BME280;4679;47.966;7.958;2023-03-22T13:33:52;96717.28;;;21.37;37.59
9281;BME280;4679;47.966;7.958;2023-03-22T13:35:55;96720.25;;;21.44;37.56
9281;BME280;4679;47.966;7.958;2023-03-22T13:38:01;96715.19;;;21.42;37.37
9281;BME280;4679;47.966;7.958;2023-03-22T13:40:11;96713.31;;;21.34;37.35
9281;BME280;4679;47.966;7.958;2023-03-22T13:42:17;96703.97;;;21.32;37.64
9281;BME280;4679;47.966;7.958;2023-03-22T13:44:27;96709.66;;;21.30;37.24
9281;BME280;4679;47.966;7.958;2023-03-22T13:46:43;96705.97;;;21.44;37.29
9281;BME280;4679;47.966;7.958;2023-03-22T13:48:56;96696.50;;;21.29;37.85
9281;BME280;4679;47.966;7.958;2023-03-22T13:51:15;96700.84;;;20.95;38.01
9281;BME280;4679;47.966;7.958;2023-03-22T13:53:25;96698.81;;;20.58;38.26
9281;BME280;4679;47.966;7.958;2023-03-22T13:55:37;96696.13;;;20.49;38.90
9281;BME280;4679;47.966;7.958;2023-03-22T13:57:49;96701.34;;;20.37;38.69
9281;BME280;4679;47.966;7.958;2023-03-22T13:59:58;96694.16;;;20.07;38.85
9281;BME280;4679;47.966;7.958;2023-03-22T14:02:02;96693.97;;;20.03;39.01
9281;BME280;4679;47.966;7.958;2023-03-22T14:04:14;96689.25;;;20.09;38.99
9281;BME280;4679;47.966;7.958;2023-03-22T14:06:23;96695.28;;;20.14;39.06
9281;BME280;4679;47.966;7.958;2023-03-22T14:08:28;96692.28;;;20.24;38.93
9281;BME280;4679;47.966;7.958;2023-03-22T14:10:37;96681.38;;;20.38;38.49
9281;BME280;4679;47.966;7.958;2023-03-22T14:12:47;96680.13;;;20.44;38.47
9281;BME280;4679;47.966;7.958;2023-03-22T14:14:54;96680.72;;;20.50;38.59
9281;BME280;4679;47.966;7.958;2023-03-22T14:17:00;96678.69;;;20.47;38.66
9281;BME280;4679;47.966;7.958;2023-03-22T14:19:05;96671.19;;;20.35;38.84
9281;BME280;4679;47.966;7.958;2023-03-22T14:21:12;96673.78;;;20.40;38.64
9281;BME280;4679;47.966;7.958;2023-03-22T14:23:19;96669.47;;;20.48;38.42
9281;BME280;4679;47.966;7.958;2023-03-22T14:25:26;96666.44;;;20.92;37.56
9281;BME280;4679;47.966;7.958;2023-03-22T14:27:32;96668.56;;;21.16;37.61
9281;BME280;4679;47.966;7.958;2023-03-22T14:29:41;96671.56;;;21.32;37.42
9281;BME280;4679;47.966;7.958;2023-03-22T14:31:44;96658.72;;;21.29;37.51
9281;BME280;4679;47.966;7.958;2023-03-22T14:33:46;96659.88;;;21.02;37.77
9281;BME280;4679;47.966;7.958;2023-03-22T14:35:53;96652.16;;;20.83;38.15
9281;BME280;4679;47.966;7.958;2023-03-22T14:38:01;96652.53;;;20.39;38.63
9281;BME280;4679;47.966;7.958;2023-03-22T14:40:12;96648.03;;;19.91;39.00
9281;BME280;4679;47.966;7.958;2023-03-22T14:42:23;96665.25;;;19.73;38.93
9281;BME280;4679;47.966;7.958;2023-03-22T14:44:30;96651.34;;;19.79;39.01
9281;BME280;4679;47.966;7.958;2023-03-22T14:46:38;96659.25;;;19.67;38.98
9281;BME280;4679;47.966;7.958;2023-03-22T14:48:46;96651.78;;;19.73;38.96
9281;BME280;4679;47.966;7.958;2023-03-22T14:50:51;96648.16;;;19.77;38.91
9281;BME280;4679;47.966;7.958;2023-03-22T14:52:54;96644.22;;;19.92;38.90
9281;BME280;4679;47.966;7.958;2023-03-22T14:54:58;96643.13;;;20.19;38.43
9281;BME280;4679;47.966;7.958;2023-03-22T14:57:01;96648.38;;;20.32;38.06
9281;BME280;4679;47.966;7.958;2023-03-22T14:59:03;96639.19;;;20.51;37.93
9281;BME280;4679;47.966;7.958;2023-03-22T15:01:12;96627.13;;;20.74;37.68
9281;BME280;4679;47.966;7.958;2023-03-22T15:03:22;96628.81;;;20.87;37.49
9281;BME280;4679;47.966;7.958;2023-03-22T15:05:26;96628.03;;;20.87;37.31
9281;BME280;4679;47.966;7.958;2023-03-22T15:07:28;96632.94;;;20.85;37.64
9281;BME280;4679;47.966;7.958;2023-03-22T15:09:29;96624.59;;;20.60;37.81
9281;BME280;4679;47.966;7.958;2023-03-22T15:11:33;96618.56;;;20.63;37.66
9281;BME280;4679;47.966;7.958;2023-03-22T15:13:38;96615.03;;;20.80;37.36
9281;BME280;4679;47.966;7.958;2023-03-22T15:15:42;96613.75;;;20.86;37.66
9281;BME280;4679;47.966;7.958;2023-03-22T15:17:46;96609.47;;;20.85;37.44
9281;BME280;4679;47.966;7.958;2023-03-22T15:19:50;96611.53;;;20.88;37.79
9281;BME280;4679;47.966;7.958;2023-03-22T15:22:03;96609.22;;;20.61;38.14
9281;BME280;4679;47.966;7.958;2023-03-22T15:24:13;96612.38;;;20.71;37.84
9281;BME280;4679;47.966;7.958;2023-03-22T15:26:22;96606.34;;;20.75;37.75
9281;BME280;4679;47.966;7.958;2023-03-22T15:28:30;96611.91;;;20.61;38.03
9281;BME280;4679;47.966;7.958;2023-03-22T15:30:35;96614.44;;;20.49;38.17
9281;BME280;4679;47.966;7.958;2023-03-22T15:32:39;96605.72;;;20.34;38.37
9281;BME280;4679;47.966;7.958;2023-03-22T15:34:42;96610.84;;;20.45;38.24
9281;BME280;4679;47.966;7.958;2023-03-22T15:36:45;96601.00;;;20.40;37.99
9281;BME280;4679;47.966;7.958;2023-03-22T15:38:50;96605.25;;;20.32;38.34
9281;BME280;4679;47.966;7.958;2023-03-22T15:40:52;96604.16;;;20.25;38.53
9281;BME280;4679;47.966;7.958;2023-03-22T15:43:07;96608.28;;;20.31;38.36
9281;BME280;4679;47.966;7.958;2023-03-22T15:45:17;96612.25;;;20.25;38.42
9281;BME280;4679;47.966;7.958;2023-03-22T15:47:20;96613.69;;;20.31;38.34
9281;BME280;4679;47.966;7.958;2023-03-22T15:49:33;96617.94;;;20.32;38.43
9281;BME280;4679;47.966;7.958;2023-03-22T15:51:36;96611.91;;;20.18;38.63
9281;BME280;4679;47.966;7.958;2023-03-22T15:53:40;96616.03;;;20.07;38.21
9281;BME280;4679;47.966;7.958;2023-03-22T15:55:42;96617.78;;;20.20;38.30
9281;BME280;4679;47.966;7.958;2023-03-22T15:57:48;96616.06;;;20.15;38.43
9281;BME280;4679;47.966;7.958;2023-03-22T15:59:53;96607.97;;;20.15;38.54
9281;BME280;4679;47.966;7.958;2023-03-22T16:01:57;96615.25;;;20.15;38.37
9281;BME280;4679;47.966;7.958;2023-03-22T16:04:10;96604.16;;;20.16;38.26
9281;BME280;4679;47.966;7.958;2023-03-22T16:06:16;96617.94;;;20.06;38.45
9281;BME280;4679;47.966;7.958;2023-03-22T16:08:18;96617.47;;;19.95;38.65
9281;BME280;4679;47.966;7.958;2023-03-22T16:10:20;96615.72;;;19.91;38.55
9281;BME280;4679;47.966;7.958;2023-03-22T16:12:23;96623.47;;;19.84;38.87
9281;BME280;4679;47.966;7.958;2023-03-22T16:14:25;96623.00;;;19.82;38.70
9281;BME280;4679;47.966;7.958;2023-03-22T16:16:27;96626.78;;;19.81;38.81
9281;BME280;4679;47.966;7.958;2023-03-22T16:18:30;96624.09;;;19.89;38.99
9281;BME280;4679;47.966;7.958;2023-03-22T16:20:32;96622.38;;;19.85;38.72
9281;BME280;4679;47.966;7.958;2023-03-22T16:22:33;96617.91;;;19.89;38.37
9281;BME280;4679;47.966;7.958;2023-03-22T16:24:35;96613.50;;;19.84;38.67
9281;BME280;4679;47.966;7.958;2023-03-22T16:26:37;96622.31;;;19.50;39.03
9281;BME280;4679;47.966;7.958;2023-03-22T16:28:39;96624.78;;;19.38;39.07
9281;BME280;4679;47.966;7.958;2023-03-22T16:30:41;96625.09;;;19.45;39.19
9281;BME280;4679;47.966;7.958;2023-03-22T16:32:44;96623.25;;;19.54;38.92
9281;BME280;4679;47.966;7.958;2023-03-22T16:34:48;96625.47;;;19.61;38.67
9281;BME280;4679;47.966;7.958;2023-03-22T16:36:50;96627.84;;;19.54;38.84
9281;BME280;4679;47.966;7.958;2023-03-22T16:38:51;96622.69;;;19.35;39.04
9281;BME280;4679;47.966;7.958;2023-03-22T16:40:54;96629.91;;;19.17;39.42
9281;BME280;4679;47.966;7.958;2023-03-22T16:42:56;96625.13;;;19.06;39.47
9281;BME280;4679;47.966;7.958;2023-03-22T16:44:58;96627.59;;;18.93;39.51
9281;BME280;4679;47.966;7.958;2023-03-22T16:46:59;96619.69;;;18.66;39.88
9281;BME280;4679;47.966;7.958;2023-03-22T16:49:01;96623.38;;;18.56;39.94
9281;BME280;4679;47.966;7.958;2023-03-22T16:51:05;96620.97;;;18.46;39.95
9281;BME280;4679;47.966;7.958;2023-03-22T16:53:09;96633.59;;;18.46;39.97
9281;BME280;4679;47.966;7.958;2023-03-22T16:55:16;96631.03;;;18.41;40.14
9281;BME280;4679;47.966;7.958;2023-03-22T16:57:20;96628.47;;;18.36;40.34
9281;BME280;4679;47.966;7.958;2023-03-22T16:59:24;96626.41;;;18.33;40.59
9281;BME280;4679;47.966;7.958;2023-03-22T17:01:26;96629.81;;;18.24;40.61
9281;BME280;4679;47.966;7.958;2023-03-22T17:03:27;96639.56;;;18.20;40.70
9281;BME280;4679;47.966;7.958;2023-03-22T17:05:31;96631.94;;;18.14;40.63
9281;BME280;4679;47.966;7.958;2023-03-22T17:07:34;96637.53;;;18.04;40.73
9281;BME280;4679;47.966;7.958;2023-03-22T17:09:36;96632.56;;;17.97;40.97
9281;BME280;4679;47.966;7.958;2023-03-22T17:11:38;96637.84;;;17.88;40.94
9281;BME280;4679;47.966;7.958;2023-03-22T17:13:39;96639.47;;;17.76;41.16
9281;BME280;4679;47.966;7.958;2023-03-22T17:15:43;96646.06;;;17.70;41.22
9281;BME280;4679;47.966;7.958;2023-03-22T17:17:46;96639.47;;;17.62;41.49
9281;BME280;4679;47.966;7.958;2023-03-22T17:19:48;96636.88;;;17.57;41.50
9281;BME280;4679;47.966;7.958;2023-03-22T17:21:50;96644.94;;;17.43;41.56
9281;BME280;4679;47.966;7.958;2023-03-22T17:23:53;96649.13;;;17.22;42.17
9281;BME280;4679;47.966;7.958;2023-03-22T17:25:55;96641.97;;;17.04;42.55
9281;BME280;4679;47.966;7.958;2023-03-22T17:27:57;96643.53;;;16.91;42.24
9281;BME280;4679;47.966;7.958;2023-03-22T17:30:00;96647.78;;;16.78;43.17
9281;BME280;4679;47.966;7.958;2023-03-22T17:32:04;96645.63;;;16.62;43.50
9281;BME280;4679;47.966;7.958;2023-03-22T17:34:06;96641.72;;;16.54;43.80
9281;BME280;4679;47.966;7.958;2023-03-22T17:36:09;96650.84;;;16.53;43.77
9281;BME280;4679;47.966;7.958;2023-03-22T17:38:12;96649.59;;;16.32;43.57
9281;BME280;4679;47.966;7.958;2023-03-22T17:40:15;96646.91;;;16.13;44.17
9281;BME280;4679;47.966;7.958;2023-03-22T17:42:17;96645.47;;;16.02;44.23
9281;BME280;4679;47.966;7.958;2023-03-22T17:44:19;96649.06;;;15.92;45.14
9281;BME280;4679;47.966;7.958;2023-03-22T17:46:20;96651.38;;;15.80;45.39
9281;BME280;4679;47.966;7.958;2023-03-22T17:48:22;96652.34;;;15.70;45.70
9281;BME280;4679;47.966;7.958;2023-03-22T17:50:26;96650.06;;;15.59;45.70
9281;BME280;4679;47.966;7.958;2023-03-22T17:52:31;96661.53;;;15.35;45.90
9281;BME280;4679;47.966;7.958;2023-03-22T17:54:33;96656.66;;;15.19;46.64
9281;BME280;4679;47.966;7.958;2023-03-22T17:56:36;96653.28;;;15.08;46.28
9281;BME280;4679;47.966;7.958;2023-03-22T17:58:38;96663.06;;;14.94;46.61
9281;BME280;4679;47.966;7.958;2023-03-22T18:00:40;96652.97;;;14.86;46.94
9281;BME280;4679;47.966;7.958;2023-03-22T18:02:42;96663.13;;;14.84;47.28